Terminal Aerodrome Forecast
Issued by NWS Pocatello, ID

Home | Current Version | Previous Version | Text Only | Print | Product List | Glossary On
Versions: 1 2 3 4 5 6 7 8 9 10 11 12 13 14
591
FTUS45 KPIH 222327
TAFBYI
TAF
KBYI 222327Z 2300/2324 VRB05KT P6SM VCSH SCT030 BKN080
     FM230300 06006KT P6SM VCSH SCT025 BKN080
     FM230800 28008KT P6SM SCT015 BKN150
     FM231300 28015G25KT P6SM SCT015 BKN150=

USA.gov is the U.S. government's official web portal to all federal, state and local government web resources and services.